San Gennaro — IIOT2 — position and weather

sailwx.info

Track history (hours):
 
Tides and Currents Weather Stations Pressure Air Temp Water Temp Dewpoint Dewpoint Depression Visibility Wind Speed Wind Dir Waves Ship Positions

San Gennaro

Last reported at 2016-Jul-29 01:03 UTC. Time now 2016-Jul-29 04:01 UTC.
Position N 40°50' E 014°17'.

Length 27 m; draft 5.2 m.

Type: Tug. MMSI: 247295700.

Date/timePositionNaut miles runAvg speedWind from/ knotsBaromVisibWave heightAir tempDewpointWater temp
2016-Jul-29 01:03N 40°50' E 014°17'1 1.2
2016-Jul-29 00:33N 40°51' E 014°16'0 0.0
2016-Jul-28 12:03N 40°50' E 014°16'0 0.0
2016-Jul-27 12:11N 40°51' E 014°16'2 0.1
2016-Jul-26 13:09N 40°50' E 014°18'2 0.0
2016-Jul-24 14:10N 40°51' E 014°16'0 0.0
2016-Jul-24 12:21N 40°51' E 014°16'0 0.0
2016-Jul-23 20:12N 40°50' E 014°16'0 0.1
2016-Jul-23 15:22N 40°51' E 014°16'0 0.0
2016-Jul-23 14:33N 40°51' E 014°16'6 6.0
2016-Jul-23 13:29N 40°46' E 014°22'4 1.9
2016-Jul-23 11:14N 40°49' E 014°17'2 3.0
2016-Jul-23 10:32N 40°51' E 014°16'0 0.0
2016-Jul-23 09:27N 40°51' E 014°16'0 0.0
2016-Jul-22 22:18N 40°50' E 014°16'1 1.6
2016-Jul-22 21:30N 40°49' E 014°17'1 0.8
2016-Jul-22 20:33N 40°50' E 014°18'1 1.1
2016-Jul-22 19:28N 40°50' E 014°16'0 0.3
2016-Jul-22 18:05N 40°51' E 014°16'0 0.0
2016-Jul-22 17:32N 40°51' E 014°16'0 0.0
2016-Jul-22 16:33N 40°51' E 014°16'0 0.0
2016-Jul-22 15:33N 40°51' E 014°16'0 0.0
2016-Jul-22 14:33N 40°51' E 014°16'0 0.0
2016-Jul-22 11:20N 40°51' E 014°16'0 0.0
2016-Jul-22 08:20N 40°51' E 014°16'0 0.0
2016-Jul-22 04:20N 40°51' E 014°16'2 2.0
2016-Jul-22 03:29N 40°50' E 014°18'0 0.2
2016-Jul-22 02:33N 40°50' E 014°18'0 0.2
2016-Jul-22 01:33N 40°50' E 014°17'1 0.1
2016-Jul-21 16:28N 40°51' E 014°16'0 0.0
2016-Jul-21 15:33N 40°51' E 014°16'0 0.0
2016-Jul-21 14:32N 40°51' E 014°16'0 0.0
2016-Jul-21 13:33N 40°51' E 014°16'0 0.0
2016-Jul-21 12:33N 40°51' E 014°16'0 0.0
2016-Jul-21 08:11N 40°51' E 014°16'1 1.9
2016-Jul-21 07:32N 40°50' E 014°17'  
Track history (hours):
 
Tides and Currents Weather Stations Pressure Air Temp Water Temp Dewpoint Dewpoint Depression Visibility Wind Speed Wind Dir Waves Ship Positions

San Gennaro

Last reported at 2016-Jul-29 01:03 UTC. Time now 2016-Jul-29 04:01 UTC.
Position N 40°50' E 014°17'.

Length 27 m; draft 5.2 m.

Type: Tug. MMSI: 247295700.

Date/timePositionNaut miles runAvg speedWind from/ knotsBaromVisibWave heightAir tempDewpointWater temp
2016-Jul-29 01:03N 40°50' E 014°17'1 1.2
2016-Jul-29 00:33N 40°51' E 014°16'0 0.0
2016-Jul-28 12:03N 40°50' E 014°16'0 0.0
2016-Jul-27 12:11N 40°51' E 014°16'2 0.1
2016-Jul-26 13:09N 40°50' E 014°18'2 0.0
2016-Jul-24 14:10N 40°51' E 014°16'0 0.0
2016-Jul-24 12:21N 40°51' E 014°16'0 0.0
2016-Jul-23 20:12N 40°50' E 014°16'0 0.1
2016-Jul-23 15:22N 40°51' E 014°16'0 0.0
2016-Jul-23 14:33N 40°51' E 014°16'6 6.0
2016-Jul-23 13:29N 40°46' E 014°22'4 1.9
2016-Jul-23 11:14N 40°49' E 014°17'2 3.0
2016-Jul-23 10:32N 40°51' E 014°16'0 0.0
2016-Jul-23 09:27N 40°51' E 014°16'0 0.0
2016-Jul-22 22:18N 40°50' E 014°16'1 1.6
2016-Jul-22 21:30N 40°49' E 014°17'1 0.8
2016-Jul-22 20:33N 40°50' E 014°18'1 1.1
2016-Jul-22 19:28N 40°50' E 014°16'0 0.3
2016-Jul-22 18:05N 40°51' E 014°16'0 0.0
2016-Jul-22 17:32N 40°51' E 014°16'0 0.0
2016-Jul-22 16:33N 40°51' E 014°16'0 0.0
2016-Jul-22 15:33N 40°51' E 014°16'0 0.0
2016-Jul-22 14:33N 40°51' E 014°16'0 0.0
2016-Jul-22 11:20N 40°51' E 014°16'0 0.0
2016-Jul-22 08:20N 40°51' E 014°16'0 0.0
2016-Jul-22 04:20N 40°51' E 014°16'2 2.0
2016-Jul-22 03:29N 40°50' E 014°18'0 0.2
2016-Jul-22 02:33N 40°50' E 014°18'0 0.2
2016-Jul-22 01:33N 40°50' E 014°17'1 0.1
2016-Jul-21 16:28N 40°51' E 014°16'0 0.0
2016-Jul-21 15:33N 40°51' E 014°16'0 0.0
2016-Jul-21 14:32N 40°51' E 014°16'0 0.0
2016-Jul-21 13:33N 40°51' E 014°16'0 0.0
2016-Jul-21 12:33N 40°51' E 014°16'0 0.0
2016-Jul-21 08:11N 40°51' E 014°16'1 1.9
2016-Jul-21 07:32N 40°50' E 014°17'  

Dump ship's entire track history